Time;durP1;ratioP1;P1;durP2;ratioP2;P2;SDS_P1;SDS_P2;PMS_P1;PMS_P2;Temp;Humidity;BMP_temperature;BMP_pressure;BME280_temperature;BME280_humidity;BME280_pressure;Samples;Min_cycle;Max_cycle;Signal;HPM_P1;HPM_P2
2023/04/15 00:01:58;;;;;;;2.38;2.28;;;;;;;;;;5057530;28;20060;-95
2023/04/15 00:04:25;;;;;;;3.25;3.15;;;;;;;;;;5057876;28;20061;-94
2023/04/15 00:06:52;;;;;;;9.15;8.82;;;;;;;;;;5057593;28;20401;-95
2023/04/15 00:09:20;;;;;;;2.60;2.50;;;;;;;;;;5058182;28;20144;-94
2023/04/15 00:11:47;;;;;;;3.53;3.42;;;;;;;;;;5058523;28;20488;-95
2023/04/15 00:14:14;;;;;;;3.25;3.08;;;;;;;;;;5058623;28;20491;-94
2023/04/15 00:16:41;;;;;;;3.85;3.72;;;;;;;;;;5057734;28;20500;-93
2023/04/15 00:19:07;;;;;;;2.65;2.55;;;;;;;;;;5058147;28;20098;-94
2023/04/15 00:21:34;;;;;;;2.80;2.70;;;;;;;;;;5057717;28;20566;-93
2023/04/15 00:24:00;;;;;;;4.75;4.55;;;;;;;;;;5057962;28;20052;-93
2023/04/15 00:26:28;;;;;;;2.53;2.40;;;;;;;;;;5058046;28;20064;-94
2023/04/15 00:28:55;;;;;;;4.80;4.60;;;;;;;;;;5058203;28;20048;-93
2023/04/15 00:31:21;;;;;;;3.70;3.58;;;;;;;;;;5057637;28;20052;-95
2023/04/15 00:33:48;;;;;;;4.13;3.92;;;;;;;;;;5057154;28;20140;-94
2023/04/15 00:36:15;;;;;;;3.05;2.95;;;;;;;;;;5057504;28;20049;-94
2023/04/15 00:38:41;;;;;;;3.38;3.28;;;;;;;;;;5057611;28;20053;-93
2023/04/15 00:41:09;;;;;;;3.00;2.90;;;;;;;;;;5057938;28;20053;-94
2023/04/15 00:43:37;;;;;;;3.38;3.28;;;;;;;;;;5057730;28;20053;-94
2023/04/15 00:46:05;;;;;;;2.33;2.13;;;;;;;;;;5057694;28;20055;-94
2023/04/15 00:48:31;;;;;;;3.47;3.38;;;;;;;;;;5061761;28;20045;-95
2023/04/15 00:50:58;;;;;;;3.42;3.30;;;;;;;;;;5057799;28;20551;-95
2023/04/15 00:53:24;;;;;;;5.43;5.20;;;;;;;;;;5057441;28;20104;-95
2023/04/15 00:55:51;;;;;;;5.30;5.10;;;;;;;;;;5057516;28;20131;-95
2023/04/15 00:58:18;;;;;;;4.70;4.50;;;;;;;;;;5057491;28;20052;-94
2023/04/15 01:00:46;;;;;;;3.78;3.60;;;;;;;;;;5056877;28;20107;-94
2023/04/15 01:03:14;;;;;;;4.18;3.97;;;;;;;;;;5036808;28;20156;-94
2023/04/15 01:05:41;;;;;;;4.25;4.05;;;;;;;;;;5049440;28;20060;-94
2023/04/15 01:08:08;;;;;;;2.60;2.50;;;;;;;;;;5057417;28;20845;-93
2023/04/15 01:10:35;;;;;;;3.08;2.97;;;;;;;;;;5056525;28;20052;-93
2023/04/15 01:13:02;;;;;;;4.13;3.97;;;;;;;;;;5056870;28;20396;-94
2023/04/15 01:15:29;;;;;;;8.55;8.25;;;;;;;;;;5056697;28;20416;-94
2023/04/15 01:17:57;;;;;;;4.05;3.92;;;;;;;;;;5056750;28;20045;-94
2023/04/15 01:20:24;;;;;;;3.85;3.72;;;;;;;;;;5056962;28;20087;-94
2023/04/15 01:22:51;;;;;;;3.72;3.63;;;;;;;;;;5070409;28;20049;-94
2023/04/15 01:25:18;;;;;;;3.45;3.35;;;;;;;;;;5076326;28;20055;-94
2023/04/15 01:27:46;;;;;;;2.17;2.08;;;;;;;;;;5076386;28;20466;-94
2023/04/15 01:30:13;;;;;;;2.53;2.42;;;;;;;;;;5059564;28;20049;-94
2023/04/15 01:32:40;;;;;;;2.38;2.28;;;;;;;;;;5056598;28;20048;-94
2023/04/15 01:35:07;;;;;;;5.88;5.68;;;;;;;;;;5056248;28;20049;-94
2023/04/15 01:37:34;;;;;;;2.95;2.85;;;;;;;;;;5056676;28;20458;-94
2023/04/15 01:40:00;;;;;;;2.38;2.28;;;;;;;;;;5056579;28;20049;-94
2023/04/15 01:42:27;;;;;;;2.58;2.47;;;;;;;;;;5056626;28;20057;-94
2023/04/15 01:44:55;;;;;;;3.42;3.30;;;;;;;;;;5055332;28;20084;-94
2023/04/15 01:47:22;;;;;;;4.63;4.43;;;;;;;;;;5055754;28;20053;-94
2023/04/15 01:49:48;;;;;;;2.83;2.72;;;;;;;;;;5056302;28;20135;-93
2023/04/15 01:52:15;;;;;;;3.30;3.20;;;;;;;;;;5056168;28;20412;-93
2023/04/15 01:54:42;;;;;;;4.63;4.43;;;;;;;;;;5056406;28;20463;-94
2023/04/15 01:57:08;;;;;;;2.13;2.03;;;;;;;;;;5056089;28;20131;-93
2023/04/15 01:59:35;;;;;;;2.92;2.83;;;;;;;;;;5056524;28;20095;-93
2023/04/15 02:02:04;;;;;;;2.20;2.10;;;;;;;;;;5056478;28;20052;-93
2023/04/15 02:04:30;;;;;;;4.05;3.92;;;;;;;;;;5056275;28;20048;-93
2023/04/15 02:06:57;;;;;;;3.30;3.17;;;;;;;;;;5056256;28;20110;-94
2023/04/15 02:09:23;;;;;;;2.25;2.15;;;;;;;;;;5056110;28;20056;-94
2023/04/15 02:11:50;;;;;;;3.70;3.50;;;;;;;;;;5056290;28;20488;-93
2023/04/15 02:14:17;;;;;;;3.30;3.15;;;;;;;;;;5056038;28;20048;-93
2023/04/15 02:16:43;;;;;;;4.88;4.68;;;;;;;;;;5056037;28;20110;-93
2023/04/15 02:19:12;;;;;;;2.75;2.65;;;;;;;;;;5058994;28;20110;-95
2023/04/15 02:21:39;;;;;;;4.43;4.22;;;;;;;;;;5055604;28;20075;-93
2023/04/15 02:24:06;;;;;;;2.25;2.15;;;;;;;;;;5055437;28;20132;-94
2023/04/15 02:26:32;;;;;;;3.00;2.90;;;;;;;;;;5055747;28;20049;-94
2023/04/15 02:28:59;;;;;;;3.42;3.30;;;;;;;;;;5055151;28;20512;-94
2023/04/15 02:31:26;;;;;;;3.70;3.58;;;;;;;;;;5055596;28;20045;-93
2023/04/15 02:33:52;;;;;;;3.30;3.20;;;;;;;;;;5055395;28;20053;-94
2023/04/15 02:36:20;;;;;;;4.82;4.63;;;;;;;;;;5055114;28;20111;-94
2023/04/15 02:38:47;;;;;;;7.25;6.95;;;;;;;;;;5055486;28;20386;-94
2023/04/15 02:41:13;;;;;;;5.53;5.32;;;;;;;;;;5054915;28;20099;-94
2023/04/15 02:43:40;;;;;;;5.22;5.03;;;;;;;;;;5055592;28;20484;-94
2023/04/15 02:46:07;;;;;;;3.53;3.42;;;;;;;;;;5054984;28;20049;-95
2023/04/15 02:48:33;;;;;;;4.30;3.75;;;;;;;;;;5055383;28;20052;-94
2023/04/15 02:51:13;;;;;;;2.78;2.67;;;;;;;;;;5052438;28;20041;-94
2023/04/15 02:53:41;;;;;;;3.05;2.95;;;;;;;;;;5055236;28;20048;-94
2023/04/15 02:56:08;;;;;;;2.40;2.30;;;;;;;;;;5055000;28;20053;-94
2023/04/15 02:58:35;;;;;;;3.40;3.30;;;;;;;;;;5054861;28;20081;-94
2023/04/15 03:01:01;;;;;;;3.13;3.03;;;;;;;;;;5054972;28;20052;-94
2023/04/15 03:03:28;;;;;;;2.30;2.20;;;;;;;;;;5055228;28;20091;-94
2023/04/15 03:05:55;;;;;;;2.60;2.50;;;;;;;;;;5054979;28;20040;-94
2023/04/15 03:08:21;;;;;;;2.38;2.28;;;;;;;;;;5064076;28;20052;-94
2023/04/15 03:10:51;;;;;;;4.35;4.18;;;;;;;;;;5075245;28;20052;-94
2023/04/15 03:13:17;;;;;;;2.17;2.08;;;;;;;;;;5075653;28;20087;-94
2023/04/15 03:15:45;;;;;;;3.80;3.65;;;;;;;;;;5075308;28;20048;-94
2023/04/15 03:18:12;;;;;;;4.93;4.72;;;;;;;;;;5075556;28;20045;-94
2023/04/15 03:20:38;;;;;;;3.08;2.97;;;;;;;;;;5075290;28;20052;-94
2023/04/15 03:23:05;;;;;;;5.28;5.07;;;;;;;;;;5075478;28;20056;-94
2023/04/15 03:25:31;;;;;;;2.25;2.15;;;;;;;;;;5057230;28;20074;-94
2023/04/15 03:27:59;;;;;;;3.05;2.95;;;;;;;;;;5055767;28;20072;-94
2023/04/15 03:30:26;;;;;;;3.30;3.10;;;;;;;;;;5055085;28;20045;-95
2023/04/15 03:32:53;;;;;;;3.40;3.30;;;;;;;;;;5054807;28;20048;-93
2023/04/15 03:35:19;;;;;;;3.50;3.40;;;;;;;;;;5054837;28;20049;-94
2023/04/15 03:37:47;;;;;;;2.17;2.08;;;;;;;;;;5054974;28;20123;-94
2023/04/15 03:40:14;;;;;;;4.45;4.25;;;;;;;;;;5058796;28;20044;-94
2023/04/15 03:42:41;;;;;;;3.40;3.30;;;;;;;;;;5055262;28;20087;-94
2023/04/15 03:45:09;;;;;;;2.80;2.70;;;;;;;;;;5054754;28;20052;-94
2023/04/15 03:47:36;;;;;;;13.10;12.60;;;;;;;;;;5054794;28;20410;-94
2023/04/15 03:50:03;;;;;;;5.68;5.47;;;;;;;;;;5054984;28;20053;-94
2023/04/15 03:52:29;;;;;;;3.38;3.28;;;;;;;;;;5055022;28;20084;-93
2023/04/15 03:54:56;;;;;;;2.20;2.10;;;;;;;;;;5054397;28;20060;-93
2023/04/15 03:57:23;;;;;;;1.75;1.67;;;;;;;;;;5066332;28;20049;-94
2023/04/15 03:59:49;;;;;;;2.85;2.75;;;;;;;;;;5074924;28;20055;-94
2023/04/15 04:02:17;;;;;;;3.25;3.15;;;;;;;;;;5074104;28;20117;-94
2023/04/15 04:04:44;;;;;;;2.75;2.65;;;;;;;;;;5075297;28;20526;-94
2023/04/15 04:07:14;;;;;;;2.75;2.65;;;;;;;;;;5074951;28;20503;-95
2023/04/15 04:09:41;;;;;;;1.63;1.58;;;;;;;;;;5077816;28;20075;-96
2023/04/15 04:12:08;;;;;;;2.60;2.50;;;;;;;;;;5078678;28;20044;-94
2023/04/15 04:14:34;;;;;;;3.40;3.30;;;;;;;;;;5071089;28;20451;-95
2023/04/15 04:17:01;;;;;;;2.83;2.72;;;;;;;;;;5058135;28;20115;-93
2023/04/15 04:19:29;;;;;;;5.10;4.90;;;;;;;;;;5057902;28;20048;-95
2023/04/15 04:21:55;;;;;;;2.13;2.03;;;;;;;;;;5057841;28;20045;-94
2023/04/15 04:24:22;;;;;;;3.05;2.95;;;;;;;;;;5058123;28;20045;-94
2023/04/15 04:26:49;;;;;;;1.23;1.23;;;;;;;;;;5057865;28;20106;-94
2023/04/15 04:29:15;;;;;;;2.03;1.92;;;;;;;;;;5057742;28;20049;-94
2023/04/15 04:31:42;;;;;;;1.63;1.55;;;;;;;;;;5058991;28;20048;-94
2023/04/15 04:34:08;;;;;;;4.20;4.07;;;;;;;;;;5058880;28;20501;-94
2023/04/15 04:36:36;;;;;;;2.63;2.53;;;;;;;;;;5057689;28;20504;-94
2023/04/15 04:39:03;;;;;;;3.78;3.58;;;;;;;;;;5057837;28;20055;-94
2023/04/15 04:41:29;;;;;;;1.42;1.42;;;;;;;;;;5058572;28;20485;-93
2023/04/15 04:43:56;;;;;;;2.28;2.17;;;;;;;;;;5057399;28;20110;-94
2023/04/15 04:46:22;;;;;;;1.90;1.80;;;;;;;;;;5057380;28;20554;-94
2023/04/15 04:48:49;;;;;;;4.20;4.05;;;;;;;;;;5057503;28;20048;-94
2023/04/15 04:51:16;;;;;;;4.22;4.03;;;;;;;;;;5057893;28;20049;-94
2023/04/15 04:53:44;;;;;;;5.13;4.93;;;;;;;;;;5057199;28;20049;-94
2023/04/15 04:56:10;;;;;;;2.20;2.10;;;;;;;;;;5057284;28;20528;-94
2023/04/15 04:58:37;;;;;;;2.35;2.25;;;;;;;;;;5058077;28;20049;-94
2023/04/15 05:01:03;;;;;;;2.85;2.75;;;;;;;;;;5057878;28;20060;-94
2023/04/15 05:03:30;;;;;;;7.70;7.40;;;;;;;;;;5057906;28;20262;-93
2023/04/15 05:05:57;;;;;;;4.22;4.05;;;;;;;;;;5058469;28;20107;-93
2023/04/15 05:08:23;;;;;;;3.10;3.00;;;;;;;;;;5057357;28;20056;-93
2023/04/15 05:10:51;;;;;;;4.25;4.07;;;;;;;;;;5057949;28;20045;-94
2023/04/15 05:13:18;;;;;;;3.97;3.85;;;;;;;;;;5058076;28;20052;-93
2023/04/15 05:15:44;;;;;;;5.22;4.55;;;;;;;;;;5058154;28;20059;-94
2023/04/15 05:18:11;;;;;;;3.03;2.92;;;;;;;;;;5057555;28;20053;-94
2023/04/15 05:20:38;;;;;;;3.72;3.60;;;;;;;;;;5058027;28;20550;-94
2023/04/15 05:23:05;;;;;;;3.35;3.25;;;;;;;;;;5059427;28;20056;-93
2023/04/15 05:25:31;;;;;;;3.75;3.65;;;;;;;;;;5058619;28;20483;-94
2023/04/15 05:27:59;;;;;;;3.03;2.92;;;;;;;;;;5058289;28;20057;-94
2023/04/15 05:30:26;;;;;;;3.33;3.22;;;;;;;;;;5070482;28;20053;-91
2023/04/15 05:32:52;;;;;;;4.35;4.15;;;;;;;;;;5073305;28;20055;-93
2023/04/15 05:35:19;;;;;;;3.75;3.55;;;;;;;;;;5075867;28;20110;-91
2023/04/15 05:37:46;;;;;;;3.38;3.17;;;;;;;;;;5074211;28;20033;-93
2023/04/15 05:40:13;;;;;;;2.58;2.47;;;;;;;;;;5071518;28;20393;-93
2023/04/15 05:42:40;;;;;;;3.40;3.15;;;;;;;;;;5062994;28;20079;-94
2023/04/15 05:45:08;;;;;;;3.95;3.75;;;;;;;;;;5064170;28;20461;-93
2023/04/15 05:47:36;;;;;;;4.85;4.65;;;;;;;;;;5063692;28;20485;-94
2023/04/15 05:50:02;;;;;;;4.57;4.38;;;;;;;;;;5063686;28;20055;-94
2023/04/15 05:52:29;;;;;;;5.45;5.25;;;;;;;;;;5062463;28;20132;-94
2023/04/15 05:54:56;;;;;;;4.13;3.92;;;;;;;;;;5058066;28;20451;-94
2023/04/15 05:57:23;;;;;;;7.85;7.30;;;;;;;;;;5056538;28;20053;-94
2023/04/15 05:59:51;;;;;;;4.18;3.97;;;;;;;;;;5075973;28;20044;-93
2023/04/15 06:02:19;;;;;;;4.55;4.35;;;;;;;;;;5060821;28;20747;-93
2023/04/15 06:04:45;;;;;;;5.35;5.15;;;;;;;;;;5056106;28;20053;-94
2023/04/15 06:07:12;;;;;;;6.45;6.20;;;;;;;;;;5056981;28;20053;-94
2023/04/15 06:09:39;;;;;;;5.85;5.65;;;;;;;;;;5056303;28;20057;-94
2023/04/15 06:12:10;;;;;;;15.32;14.73;;;;;;;;;;5056179;28;20437;-94
2023/04/15 06:14:37;;;;;;;7.72;7.43;;;;;;;;;;5055488;28;20059;-92
2023/04/15 06:17:03;;;;;;;7.05;6.78;;;;;;;;;;5056007;28;20045;-92
2023/04/15 06:19:31;;;;;;;6.40;6.15;;;;;;;;;;5056218;28;20550;-92
2023/04/15 06:21:58;;;;;;;6.32;6.03;;;;;;;;;;5055370;28;20488;-93
2023/04/15 06:24:25;;;;;;;6.13;5.82;;;;;;;;;;5055466;28;20055;-93
2023/04/15 06:26:51;;;;;;;5.03;4.82;;;;;;;;;;5040173;28;20057;-93
2023/04/15 06:29:18;;;;;;;5.78;5.57;;;;;;;;;;5036023;28;20060;-92
2023/04/15 06:31:44;;;;;;;7.07;6.78;;;;;;;;;;5035833;28;20046;-93
2023/04/15 06:34:11;;;;;;;5.82;5.60;;;;;;;;;;5035593;28;20174;-93
2023/04/15 06:36:39;;;;;;;6.40;6.10;;;;;;;;;;5044158;28;20124;-92
2023/04/15 06:39:05;;;;;;;5.40;5.10;;;;;;;;;;5055569;28;20746;-93
2023/04/15 06:41:33;;;;;;;6.70;6.40;;;;;;;;;;5054617;28;20060;-93
2023/04/15 06:43:59;;;;;;;7.28;7.00;;;;;;;;;;5054706;28;20053;-93
2023/04/15 06:46:26;;;;;;;8.27;7.95;;;;;;;;;;5055302;28;20058;-93
2023/04/15 06:48:53;;;;;;;8.32;7.97;;;;;;;;;;5054784;28;20705;-93
2023/04/15 06:51:19;;;;;;;9.65;9.25;;;;;;;;;;5054593;28;20055;-92
2023/04/15 06:53:47;;;;;;;8.93;8.60;;;;;;;;;;5060914;28;20837;-92
2023/04/15 06:56:14;;;;;;;8.82;8.50;;;;;;;;;;5074648;28;20617;-92
2023/04/15 06:58:40;;;;;;;8.75;8.43;;;;;;;;;;5074531;28;20056;-92
2023/04/15 07:01:07;;;;;;;9.30;8.98;;;;;;;;;;5074315;28;20052;-91
2023/04/15 07:03:34;;;;;;;13.13;12.63;;;;;;;;;;5074639;28;20056;-93
2023/04/15 07:06:00;;;;;;;8.82;8.50;;;;;;;;;;5074719;28;20071;-92
2023/04/15 07:08:27;;;;;;;9.27;8.95;;;;;;;;;;5074208;28;20515;-92
2023/04/15 07:10:55;;;;;;;11.68;11.25;;;;;;;;;;5074162;28;20049;-93
2023/04/15 07:13:22;;;;;;;9.30;8.95;;;;;;;;;;5071944;28;20053;-92
2023/04/15 07:15:49;;;;;;;12.68;12.18;;;;;;;;;;5073999;28;20049;-92
2023/04/15 07:18:15;;;;;;;11.35;10.93;;;;;;;;;;5073703;28;20112;-93
2023/04/15 07:20:43;;;;;;;11.05;10.63;;;;;;;;;;5034208;28;20045;-93
2023/04/15 07:23:09;;;;;;;13.07;12.60;;;;;;;;;;5034578;28;20050;-93
2023/04/15 07:25:35;;;;;;;18.70;18.02;;;;;;;;;;5040289;28;20041;-94
2023/04/15 07:28:04;;;;;;;14.88;14.35;;;;;;;;;;5054548;28;20056;-94
2023/04/15 07:30:30;;;;;;;15.07;14.55;;;;;;;;;;5053381;28;20048;-94
2023/04/15 07:32:58;;;;;;;14.32;13.80;;;;;;;;;;5074109;28;20044;-93
2023/04/15 07:35:25;;;;;;;15.60;15.05;;;;;;;;;;5058316;28;20060;-94
2023/04/15 07:37:52;;;;;;;15.38;14.82;;;;;;;;;;5055047;28;20140;-94
2023/04/15 07:40:18;;;;;;;12.40;11.93;;;;;;;;;;5055865;28;20083;-93
2023/04/15 07:42:47;;;;;;;14.07;13.55;;;;;;;;;;5056004;28;20115;-93
2023/04/15 07:45:15;;;;;;;14.10;13.57;;;;;;;;;;5059929;28;20045;-93
2023/04/15 07:47:42;;;;;;;15.32;14.70;;;;;;;;;;5058330;28;20099;-93
2023/04/15 07:50:09;;;;;;;16.40;15.77;;;;;;;;;;5058113;28;20045;-93
2023/04/15 07:52:38;;;;;;;21.48;20.65;;;;;;;;;;5059189;28;20095;-93
2023/04/15 07:55:05;;;;;;;22.17;21.38;;;;;;;;;;5057863;28;20056;-93
2023/04/15 07:57:32;;;;;;;19.55;18.83;;;;;;;;;;5057639;28;20053;-93
2023/04/15 07:59:58;;;;;;;22.83;22.00;;;;;;;;;;5057894;28;20052;-94
2023/04/15 08:02:26;;;;;;;20.08;19.35;;;;;;;;;;5058369;28;20045;-93
2023/04/15 08:04:53;;;;;;;16.63;16.02;;;;;;;;;;5058704;28;20724;-93
2023/04/15 08:07:20;;;;;;;29.92;28.88;;;;;;;;;;5057197;28;20049;-93
2023/04/15 08:09:47;;;;;;;17.73;17.10;;;;;;;;;;5057601;28;20118;-93
2023/04/15 08:12:13;;;;;;;25.77;24.85;;;;;;;;;;5057752;28;20049;-91
2023/04/15 08:14:40;;;;;;;19.85;19.13;;;;;;;;;;5058996;28;20080;-93
2023/04/15 08:17:07;;;;;;;23.40;22.58;;;;;;;;;;5059998;28;20059;-94
2023/04/15 08:19:35;;;;;;;16.23;15.60;;;;;;;;;;5059566;28;20045;-91
2023/04/15 08:22:01;;;;;;;41.83;40.38;;;;;;;;;;5062203;28;20381;-90
2023/04/15 08:24:28;;;;;;;27.23;26.17;;;;;;;;;;5077429;28;20066;-93
2023/04/15 08:26:55;;;;;;;20.02;19.30;;;;;;;;;;5077559;28;20048;-93
2023/04/15 08:29:22;;;;;;;25.40;24.50;;;;;;;;;;5079148;28;20113;-93
2023/04/15 08:31:48;;;;;;;24.70;23.83;;;;;;;;;;5076934;28;20044;-93
2023/04/15 08:34:15;;;;;;;18.33;17.70;;;;;;;;;;5065083;28;20045;-94
2023/04/15 08:36:43;;;;;;;13.93;13.40;;;;;;;;;;5058083;28;20057;-93
2023/04/15 08:39:09;;;;;;;28.33;27.33;;;;;;;;;;5070594;28;20393;-93
2023/04/15 08:41:40;;;;;;;26.88;25.95;;;;;;;;;;5077709;28;20121;-91
2023/04/15 08:44:07;;;;;;;29.25;28.23;;;;;;;;;;5077915;28;20553;-92
2023/04/15 08:46:34;;;;;;;24.67;23.80;;;;;;;;;;5077700;28;20048;-92
2023/04/15 08:49:03;;;;;;;28.50;27.48;;;;;;;;;;5077727;28;20052;-91
2023/04/15 08:51:30;;;;;;;35.55;34.30;;;;;;;;;;5077341;28;20131;-91
2023/04/15 08:53:59;;;;;;;29.42;28.40;;;;;;;;;;5073910;28;20041;-93
2023/04/15 08:56:26;;;;;;;22.20;21.38;;;;;;;;;;5057275;28;20052;-91
2023/04/15 08:58:53;;;;;;;22.30;21.48;;;;;;;;;;5057129;28;20118;-92
2023/04/15 09:01:20;;;;;;;25.77;24.90;;;;;;;;;;5069275;28;20060;-91
2023/04/15 09:03:48;;;;;;;25.83;24.90;;;;;;;;;;5071490;28;20045;-92
2023/04/15 09:06:16;;;;;;;23.85;23.00;;;;;;;;;;5059630;28;20049;-92
2023/04/15 09:08:42;;;;;;;22.08;21.25;;;;;;;;;;5056358;28;20057;-93
2023/04/15 09:11:11;;;;;;;26.75;25.83;;;;;;;;;;5056215;28;20122;-92
2023/04/15 09:13:37;;;;;;;29.85;28.77;;;;;;;;;;5056341;28;20126;-92
2023/04/15 09:16:05;;;;;;;32.78;31.63;;;;;;;;;;5056010;28;20118;-92
2023/04/15 09:18:32;;;;;;;26.83;25.90;;;;;;;;;;5056329;28;20053;-92
2023/04/15 09:21:04;;;;;;;33.03;31.88;;;;;;;;;;5056692;28;20044;-92
2023/04/15 09:23:32;;;;;;;31.00;29.48;;;;;;;;;;5055911;28;20133;-92
2023/04/15 09:25:58;;;;;;;35.55;34.33;;;;;;;;;;5056104;28;20049;-92
2023/04/15 09:28:26;;;;;;;34.13;32.90;;;;;;;;;;5055971;28;20106;-92
2023/04/15 09:30:55;;;;;;;33.50;32.28;;;;;;;;;;5059400;28;20123;-94
2023/04/15 09:33:22;;;;;;;38.05;36.70;;;;;;;;;;5056385;28;20061;-92
2023/04/15 09:35:56;;;;;;;28.83;27.80;;;;;;;;;;5055747;28;20741;-92
2023/04/15 09:38:23;;;;;;;29.15;28.13;;;;;;;;;;5056067;28;20063;-92
2023/04/15 09:40:49;;;;;;;25.77;24.85;;;;;;;;;;5056825;28;20077;-91
2023/04/15 09:43:16;;;;;;;32.35;31.23;;;;;;;;;;5060934;28;20088;-92
2023/04/15 09:45:48;;;;;;;34.47;33.28;;;;;;;;;;5056154;28;20052;-92
2023/04/15 09:48:16;;;;;;;35.85;34.60;;;;;;;;;;5047906;28;20037;-92
2023/04/15 09:50:43;;;;;;;41.40;39.95;;;;;;;;;;5055666;28;20056;-93
2023/04/15 09:53:10;;;;;;;35.80;34.55;;;;;;;;;;5056053;28;20110;-94
2023/04/15 09:55:36;;;;;;;37.85;36.53;;;;;;;;;;5055605;28;20459;-93
2023/04/15 09:58:08;;;;;;;32.72;31.58;;;;;;;;;;5060094;28;20078;-91
2023/04/15 10:00:35;;;;;;;24.27;23.38;;;;;;;;;;5068819;28;20052;-91
2023/04/15 10:03:03;;;;;;;24.17;23.33;;;;;;;;;;5053763;28;20040;-91
2023/04/15 10:05:30;;;;;;;37.53;36.20;;;;;;;;;;5053964;28;20484;-90
2023/04/15 10:07:57;;;;;;;35.15;33.90;;;;;;;;;;5054493;28;20044;-93
2023/04/15 10:13:04;;;;;;;29.42;28.40;;;;;;;;;;5058246;28;20095;-93
2023/04/15 10:15:31;;;;;;;33.35;32.15;;;;;;;;;;5055515;28;20060;-92
2023/04/15 10:18:00;;;;;;;40.55;39.03;;;;;;;;;;5074851;28;20056;-93
2023/04/15 10:20:29;;;;;;;37.95;36.58;;;;;;;;;;5066503;28;20106;-93
2023/04/15 10:22:55;;;;;;;37.38;36.05;;;;;;;;;;5054140;28;20037;-93
2023/04/15 10:25:22;;;;;;;36.05;34.78;;;;;;;;;;5054496;28;20496;-93
2023/04/15 10:27:51;;;;;;;41.05;39.63;;;;;;;;;;5054175;28;20044;-92
2023/04/15 10:30:18;;;;;;;39.17;37.80;;;;;;;;;;5055330;28;20064;-93
2023/04/15 10:32:45;;;;;;;33.75;31.98;;;;;;;;;;5054230;28;20048;-93
2023/04/15 10:35:11;;;;;;;36.50;35.22;;;;;;;;;;5054879;28;20099;-93
2023/04/15 10:37:39;;;;;;;27.35;26.38;;;;;;;;;;5055233;28;20045;-92
2023/04/15 10:40:24;;;;;;;41.13;39.70;;;;;;;;;;5057794;28;20049;-93
2023/04/15 10:42:50;;;;;;;36.10;34.88;;;;;;;;;;5069741;28;20041;-91
2023/04/15 10:45:18;;;;;;;39.75;38.40;;;;;;;;;;5055564;28;20041;-92
2023/04/15 10:47:44;;;;;;;32.63;31.42;;;;;;;;;;5054249;28;20103;-92
2023/04/15 10:50:11;;;;;;;32.10;30.98;;;;;;;;;;5054260;28;20114;-92
2023/04/15 10:52:41;;;;;;;28.95;27.92;;;;;;;;;;5055242;28;20055;-91
2023/04/15 10:55:13;;;;;;;33.35;32.17;;;;;;;;;;5053308;28;20135;-93
2023/04/15 10:57:40;;;;;;;28.52;27.50;;;;;;;;;;5053997;28;20045;-93
2023/04/15 11:00:11;;;;;;;26.92;25.75;;;;;;;;;;5054948;28;20504;-93
2023/04/15 11:02:42;;;;;;;37.30;35.97;;;;;;;;;;5054504;28;20092;-93
2023/04/15 11:05:09;;;;;;;30.30;29.20;;;;;;;;;;5054200;28;20447;-92
2023/04/15 11:07:50;;;;;;;30.40;29.33;;;;;;;;;;5053457;28;20048;-93
2023/04/15 11:10:35;;;;;;;39.70;38.30;;;;;;;;;;5063961;28;20459;-93
2023/04/15 11:13:04;;;;;;;27.40;26.45;;;;;;;;;;5055044;28;20057;-93
2023/04/15 11:15:33;;;;;;;28.17;27.15;;;;;;;;;;5054845;28;20053;-92
2023/04/15 11:18:00;;;;;;;28.45;27.42;;;;;;;;;;5056938;28;20098;-92
2023/04/15 11:20:27;;;;;;;40.90;39.55;;;;;;;;;;5058576;28;20049;-93
2023/04/15 11:22:54;;;;;;;39.33;37.88;;;;;;;;;;5058780;28;20095;-92
2023/04/15 11:25:24;;;;;;;43.00;41.55;;;;;;;;;;5064920;28;20083;-93
2023/04/15 11:27:51;;;;;;;30.70;29.63;;;;;;;;;;5079181;28;20060;-93
2023/04/15 11:30:21;;;;;;;34.53;33.20;;;;;;;;;;5077231;28;20045;-93
2023/04/15 11:32:47;;;;;;;55.72;53.80;;;;;;;;;;5059234;28;20433;-93
2023/04/15 11:35:14;;;;;;;25.00;24.10;;;;;;;;;;5059679;28;20053;-92
2023/04/15 11:37:41;;;;;;;30.80;29.73;;;;;;;;;;5059609;28;20049;-93
2023/04/15 11:40:08;;;;;;;30.42;29.38;;;;;;;;;;5058679;28;20416;-93
2023/04/15 11:42:34;;;;;;;42.33;40.88;;;;;;;;;;5069273;28;20492;-93
2023/04/15 11:45:06;;;;;;;26.30;25.38;;;;;;;;;;5078157;28;20040;-92
2023/04/15 11:47:34;;;;;;;29.05;28.02;;;;;;;;;;5038323;28;20052;-93
2023/04/15 11:50:13;;;;;;;28.33;27.30;;;;;;;;;;5038558;28;20107;-92
2023/04/15 11:52:40;;;;;;;26.02;25.05;;;;;;;;;;5038305;28;20047;-93
2023/04/15 11:55:07;;;;;;;23.58;22.73;;;;;;;;;;5038376;28;20519;-94
2023/04/15 11:57:35;;;;;;;25.15;24.25;;;;;;;;;;5038648;28;20056;-93
2023/04/15 12:00:03;;;;;;;32.40;31.20;;;;;;;;;;5051462;28;20041;-94
2023/04/15 12:02:31;;;;;;;24.50;23.63;;;;;;;;;;5058133;28;20112;-93
2023/04/15 12:05:04;;;;;;;29.35;28.33;;;;;;;;;;5057273;28;20496;-93
2023/04/15 12:07:31;;;;;;;29.00;27.98;;;;;;;;;;5058290;28;20055;-94
2023/04/15 12:09:57;;;;;;;26.10;25.20;;;;;;;;;;5059379;28;20048;-92
2023/04/15 12:12:27;;;;;;;28.80;27.77;;;;;;;;;;5057997;28;20048;-93
2023/04/15 12:14:53;;;;;;;24.23;23.38;;;;;;;;;;5043359;28;20045;-94
2023/04/15 12:17:20;;;;;;;26.92;26.00;;;;;;;;;;5077131;28;20044;-94
2023/04/15 12:19:48;;;;;;;23.42;22.60;;;;;;;;;;5080286;28;20048;-93
2023/04/15 12:22:18;;;;;;;21.05;20.27;;;;;;;;;;5063788;28;20084;-94
2023/04/15 12:24:47;;;;;;;24.20;23.35;;;;;;;;;;5057989;28;20048;-94
2023/04/15 12:27:14;;;;;;;23.90;23.08;;;;;;;;;;5052941;28;20045;-94
2023/04/15 12:29:42;;;;;;;21.35;20.58;;;;;;;;;;5057002;28;20115;-93
2023/04/15 12:32:09;;;;;;;25.33;24.40;;;;;;;;;;5066514;28;20044;-93
2023/04/15 12:34:36;;;;;;;25.48;24.58;;;;;;;;;;5073034;28;20497;-93
2023/04/15 12:37:04;;;;;;;23.45;22.63;;;;;;;;;;5057893;28;20045;-94
2023/04/15 12:39:34;;;;;;;25.27;24.35;;;;;;;;;;5058595;28;20049;-93
2023/04/15 12:42:01;;;;;;;27.75;26.83;;;;;;;;;;5061218;28;20143;-95
2023/04/15 12:44:28;;;;;;;28.38;27.35;;;;;;;;;;5059097;28;20139;-93
2023/04/15 12:46:54;;;;;;;33.70;32.53;;;;;;;;;;5059263;28;20053;-93
2023/04/15 12:49:22;;;;;;;32.10;30.98;;;;;;;;;;5065271;28;20082;-94
2023/04/15 12:51:49;;;;;;;23.20;22.38;;;;;;;;;;5071023;28;20080;-93
2023/04/15 12:54:16;;;;;;;23.48;22.65;;;;;;;;;;5061065;28;20055;-94
2023/04/15 12:56:44;;;;;;;24.25;23.40;;;;;;;;;;5057194;28;20125;-93
2023/04/15 12:59:11;;;;;;;22.50;21.67;;;;;;;;;;5059208;28;20521;-93
2023/04/15 13:01:38;;;;;;;22.23;21.42;;;;;;;;;;5058188;28;20053;-93
2023/04/15 13:04:05;;;;;;;21.75;20.95;;;;;;;;;;5057284;28;20052;-94
2023/04/15 13:06:32;;;;;;;27.77;26.80;;;;;;;;;;5060626;28;20053;-94
2023/04/15 13:08:59;;;;;;;19.95;19.23;;;;;;;;;;5059967;28;20136;-94
2023/04/15 13:11:25;;;;;;;25.00;24.10;;;;;;;;;;5059080;28;20053;-94
2023/04/15 13:13:54;;;;;;;31.58;30.48;;;;;;;;;;5057537;28;20045;-93
2023/04/15 13:16:22;;;;;;;20.70;20.00;;;;;;;;;;5059494;28;20048;-94
2023/04/15 13:18:48;;;;;;;19.77;19.05;;;;;;;;;;5058777;28;20135;-96
2023/04/15 13:21:15;;;;;;;26.33;25.40;;;;;;;;;;5057652;28;20049;-94
2023/04/15 13:23:41;;;;;;;22.13;21.33;;;;;;;;;;5059571;28;20060;-94
2023/04/15 13:26:08;;;;;;;21.15;20.42;;;;;;;;;;5058283;28;20053;-94
2023/04/15 13:28:35;;;;;;;31.45;30.35;;;;;;;;;;5061334;28;20052;-94
2023/04/15 13:31:03;;;;;;;38.90;37.58;;;;;;;;;;5068528;28;20045;-95
2023/04/15 13:33:29;;;;;;;25.92;25.00;;;;;;;;;;5070341;28;20053;-94
2023/04/15 13:35:56;;;;;;;29.15;28.10;;;;;;;;;;5069564;28;20049;-93
2023/04/15 13:38:23;;;;;;;27.88;26.88;;;;;;;;;;5066562;28;20045;-93
2023/04/15 13:40:49;;;;;;;22.98;22.15;;;;;;;;;;5075868;28;20060;-94
2023/04/15 13:43:16;;;;;;;23.23;22.40;;;;;;;;;;5066938;28;20488;-94
2023/04/15 13:45:43;;;;;;;26.80;25.85;;;;;;;;;;5069595;28;20048;-93
2023/04/15 13:48:10;;;;;;;23.13;22.30;;;;;;;;;;5067401;28;20075;-95
2023/04/15 13:50:37;;;;;;;22.48;21.65;;;;;;;;;;5068030;28;20056;-95
2023/04/15 13:53:03;;;;;;;32.25;31.13;;;;;;;;;;5067966;28;20057;-93
2023/04/15 13:55:30;;;;;;;28.08;27.08;;;;;;;;;;5066576;28;20045;-94
2023/04/15 13:57:57;;;;;;;21.50;20.70;;;;;;;;;;5069988;28;20040;-95
2023/04/15 14:00:23;;;;;;;24.55;23.20;;;;;;;;;;5067341;28;20098;-96
2023/04/15 14:02:50;;;;;;;24.98;24.08;;;;;;;;;;5067427;28;20045;-94
2023/04/15 14:05:18;;;;;;;20.63;19.90;;;;;;;;;;5066769;28;20053;-94
2023/04/15 14:07:44;;;;;;;20.92;20.17;;;;;;;;;;5065650;28;20075;-95
2023/04/15 14:10:11;;;;;;;21.85;21.02;;;;;;;;;;5060801;28;20045;-95
2023/04/15 14:12:38;;;;;;;28.10;27.10;;;;;;;;;;5056488;28;20049;-95
2023/04/15 14:15:05;;;;;;;28.10;27.10;;;;;;;;;;5058443;28;20045;-95
2023/04/15 14:17:32;;;;;;;29.90;28.85;;;;;;;;;;5060698;28;20048;-94
2023/04/15 14:19:59;;;;;;;26.65;25.73;;;;;;;;;;5057649;28;20049;-94
2023/04/15 14:22:27;;;;;;;39.13;37.78;;;;;;;;;;5056573;28;20057;-95
2023/04/15 14:24:54;;;;;;;30.88;29.80;;;;;;;;;;5057622;28;20558;-94
2023/04/15 14:27:21;;;;;;;24.95;24.05;;;;;;;;;;5059106;28;20060;-94
2023/04/15 14:29:47;;;;;;;44.20;42.70;;;;;;;;;;5058672;28;20714;-94
2023/04/15 14:32:14;;;;;;;21.00;20.27;;;;;;;;;;5060521;28;20045;-96